createdAt,value
2022-10-05T00:00:15.392Z,101069.72
2022-10-05T00:02:42.102Z,101080.25
2022-10-05T00:05:25.619Z,101078.22
2022-10-05T00:07:54.223Z,101076.56
2022-10-05T00:10:20.727Z,101079.25
2022-10-05T00:12:48.771Z,101078.41
2022-10-05T00:15:18.423Z,101076.00
2022-10-05T00:17:44.926Z,101082.47
2022-10-05T00:20:24.511Z,101078.03
2022-10-05T00:23:00.862Z,101081.28
2022-10-05T00:25:27.346Z,101087.25
2022-10-05T00:27:56.668Z,101086.56
2022-10-05T00:30:25.333Z,101088.09
2022-10-05T00:32:59.300Z,101087.25
2022-10-05T00:35:26.158Z,101092.91
2022-10-05T00:37:55.548Z,101089.28
2022-10-05T00:40:37.120Z,101087.75
2022-10-05T00:43:21.663Z,101080.94
2022-10-05T00:46:00.028Z,101077.84
2022-10-05T00:48:37.103Z,101084.50
2022-10-05T00:51:11.408Z,101090.28
2022-10-05T00:53:49.980Z,101081.06
2022-10-05T00:56:25.530Z,101091.72
2022-10-05T00:58:55.012Z,101091.22
2022-10-05T01:01:33.734Z,101083.84
2022-10-05T01:04:27.580Z,101079.97
2022-10-05T01:07:03.465Z,101071.97
2022-10-05T01:10:00.020Z,101062.41
2022-10-05T01:12:36.975Z,101059.50
2022-10-05T01:15:41.276Z,101055.56
2022-10-05T01:18:19.724Z,101058.63
2022-10-05T01:21:01.518Z,101048.38
2022-10-05T01:23:48.990Z,101048.00
2022-10-05T01:26:33.859Z,101042.19
2022-10-05T01:29:32.524Z,101052.41
2022-10-05T01:32:11.290Z,101050.00
2022-10-05T01:35:09.982Z,101050.63
2022-10-05T01:37:42.428Z,101052.34
2022-10-05T01:40:31.165Z,101063.56
2022-10-05T01:43:16.128Z,101062.72
2022-10-05T01:46:01.281Z,101053.69
2022-10-05T01:49:00.316Z,101056.59
2022-10-05T01:51:47.825Z,101064.91
2022-10-05T01:54:23.070Z,101061.66
2022-10-05T01:57:13.978Z,101065.56
2022-10-05T01:59:40.279Z,101070.28
2022-10-05T02:02:11.047Z,101064.69
2022-10-05T02:05:01.568Z,101066.38
2022-10-05T02:07:56.004Z,101059.13
2022-10-05T02:10:28.717Z,101058.97
2022-10-05T02:13:05.217Z,101064.28
2022-10-05T02:15:43.202Z,101067.88
2022-10-05T02:18:17.615Z,101056.84
2022-10-05T02:20:46.452Z,101060.03
2022-10-05T02:23:19.722Z,101060.41
2022-10-05T02:25:49.475Z,101068.19
2022-10-05T02:28:25.694Z,101065.97
2022-10-05T02:31:01.485Z,101063.94
2022-10-05T02:33:30.020Z,101053.53
2022-10-05T02:36:02.266Z,101055.41
2022-10-05T02:38:53.372Z,101052.22
2022-10-05T02:41:37.884Z,101044.28
2022-10-05T02:44:22.405Z,101039.66
2022-10-05T02:47:04.270Z,101026.22
2022-10-05T02:50:05.927Z,101029.47
2022-10-05T02:52:41.234Z,101026.72
2022-10-05T02:55:10.445Z,101021.47
2022-10-05T02:58:20.697Z,101023.50
2022-10-05T03:01:22.539Z,101014.31
2022-10-05T03:04:15.826Z,101009.22
2022-10-05T03:06:58.660Z,101009.56
2022-10-05T03:09:29.028Z,101011.78
2022-10-05T03:12:09.179Z,101015.72
2022-10-05T03:14:57.699Z,101017.59
2022-10-05T03:17:47.205Z,101018.47
2022-10-05T03:20:31.911Z,101011.97
2022-10-05T03:23:04.824Z,101009.94
2022-10-05T03:25:43.783Z,101003.00
2022-10-05T03:28:40.358Z,100993.47
2022-10-05T03:31:18.949Z,100999.59
2022-10-05T03:34:05.510Z,100990.94
2022-10-05T03:36:40.822Z,100988.34
2022-10-05T03:39:17.253Z,100983.81
2022-10-05T03:42:15.928Z,100994.84
2022-10-05T03:45:07.547Z,100992.03
2022-10-05T03:47:47.776Z,100993.72
2022-10-05T03:50:42.466Z,100999.50
2022-10-05T03:53:25.733Z,101003.94
2022-10-05T03:55:59.788Z,101006.31
2022-10-05T03:58:29.408Z,101003.75
2022-10-05T04:01:05.471Z,101010.25
2022-10-05T04:03:58.104Z,101011.94
2022-10-05T04:06:33.105Z,101006.66
2022-10-05T04:09:12.993Z,101018.56
2022-10-05T04:11:47.263Z,101013.84
2022-10-05T04:14:32.090Z,101015.69
2022-10-05T04:17:03.490Z,101019.59
2022-10-05T04:19:44.281Z,101008.03
2022-10-05T04:22:29.380Z,101006.66
2022-10-05T04:24:58.565Z,101006.81
2022-10-05T04:27:33.299Z,101015.16
2022-10-05T04:30:16.719Z,101016.00
2022-10-05T04:32:52.189Z,101018.75
2022-10-05T04:35:45.235Z,101015.00
2022-10-05T04:38:34.817Z,101008.38
2022-10-05T04:41:25.339Z,101017.56
2022-10-05T04:44:06.869Z,101013.66
2022-10-05T04:46:41.334Z,101016.53
2022-10-05T04:49:16.559Z,101020.81
2022-10-05T04:52:07.670Z,101023.88
2022-10-05T04:54:47.219Z,101026.91
2022-10-05T04:57:25.749Z,101020.94
2022-10-05T05:00:24.729Z,101026.41
2022-10-05T05:03:16.062Z,101020.94
2022-10-05T05:06:17.714Z,101023.69
2022-10-05T05:09:18.341Z,101028.59
2022-10-05T05:12:00.728Z,101021.09
2022-10-05T05:14:56.756Z,101029.38
2022-10-05T05:17:34.835Z,101029.59
2022-10-05T05:20:16.440Z,101039.63
2022-10-05T05:22:55.631Z,101040.97
2022-10-05T05:25:47.244Z,101037.41
2022-10-05T05:28:34.987Z,101041.16
2022-10-05T05:31:24.344Z,101041.50
2022-10-05T05:34:28.537Z,101057.31
2022-10-05T05:37:07.153Z,101053.59
2022-10-05T05:39:53.809Z,101066.00
2022-10-05T05:42:26.170Z,101069.75
2022-10-05T05:44:53.907Z,101071.09
2022-10-05T05:47:35.253Z,101077.44
2022-10-05T05:50:12.857Z,101079.13
2022-10-05T05:52:56.923Z,101091.00
2022-10-05T05:55:32.943Z,101084.38
2022-10-05T05:58:18.138Z,101079.47
2022-10-05T06:00:50.920Z,101094.75
2022-10-05T06:03:55.522Z,101091.00
2022-10-05T06:06:26.882Z,101087.97
2022-10-05T06:09:00.685Z,101091.06
2022-10-05T06:11:51.639Z,101090.38
2022-10-05T06:14:28.822Z,101101.16
2022-10-05T06:17:02.981Z,101088.06
2022-10-05T06:19:35.443Z,101092.00
2022-10-05T06:22:23.326Z,101103.75
2022-10-05T06:25:04.760Z,101109.53
2022-10-05T06:27:56.817Z,101101.03
2022-10-05T06:30:23.928Z,101101.72
2022-10-05T06:32:50.218Z,101101.91
2022-10-05T06:35:38.620Z,101104.28
2022-10-05T06:38:12.802Z,101099.34
2022-10-05T06:41:00.725Z,101094.56
2022-10-05T06:43:40.611Z,101099.19
2022-10-05T06:46:14.224Z,101100.56
2022-10-05T06:48:59.407Z,101101.28
2022-10-05T06:51:52.378Z,101105.03
2022-10-05T06:54:57.249Z,101104.69
2022-10-05T06:57:52.023Z,101104.22
2022-10-05T07:00:21.481Z,101099.44
2022-10-05T07:02:51.628Z,101099.13
2022-10-05T07:05:30.322Z,101102.16
2022-10-05T07:08:09.297Z,101100.97
2022-10-05T07:11:09.708Z,101105.44
2022-10-05T07:13:47.704Z,101096.75
2022-10-05T07:16:54.671Z,101106.44
2022-10-05T07:19:33.296Z,101105.41
2022-10-05T07:22:11.722Z,101103.50
2022-10-05T07:24:50.522Z,101110.63
2022-10-05T07:27:21.048Z,101105.84
2022-10-05T07:30:01.632Z,101112.28
2022-10-05T07:33:05.224Z,101115.91
2022-10-05T07:36:11.729Z,101108.03
2022-10-05T07:38:52.662Z,101096.28
2022-10-05T07:41:30.076Z,101093.06
2022-10-05T07:44:02.810Z,101090.81
2022-10-05T07:46:32.360Z,101093.22
2022-10-05T07:49:26.365Z,101105.13
2022-10-05T07:52:01.422Z,101101.47
2022-10-05T07:54:45.748Z,101097.44
2022-10-05T07:57:27.028Z,101105.91
2022-10-05T08:00:05.643Z,101105.44
2022-10-05T08:02:44.377Z,101110.84
2022-10-05T08:05:30.794Z,101113.72
2022-10-05T08:08:21.353Z,101106.44
2022-10-05T08:11:09.233Z,101113.72
2022-10-05T08:13:42.353Z,101102.22
2022-10-05T08:16:12.667Z,101101.44
2022-10-05T08:18:56.153Z,101104.09
2022-10-05T08:21:38.052Z,101094.75
2022-10-05T08:24:15.503Z,101101.53
2022-10-05T08:27:03.252Z,101098.50
2022-10-05T08:30:12.330Z,101094.34
2022-10-05T08:32:52.371Z,101090.41
2022-10-05T08:35:28.007Z,101095.63
2022-10-05T08:37:55.170Z,101091.06
2022-10-05T08:40:58.415Z,101096.50
2022-10-05T08:43:43.593Z,101092.97
2022-10-05T08:46:28.474Z,101096.06
2022-10-05T08:49:19.882Z,101092.09
2022-10-05T08:51:54.421Z,101096.81
2022-10-05T08:54:39.762Z,101087.41
2022-10-05T08:57:22.747Z,101089.00
2022-10-05T09:00:06.259Z,101082.31
2022-10-05T09:02:54.382Z,101090.78
2022-10-05T09:05:26.269Z,101093.38
2022-10-05T09:08:04.626Z,101090.09
2022-10-05T09:11:02.522Z,101082.38
2022-10-05T09:13:38.773Z,101081.97
2022-10-05T09:16:30.370Z,101074.06
2022-10-05T09:19:24.209Z,101074.69
2022-10-05T09:21:58.015Z,101069.66
2022-10-05T09:24:56.448Z,101076.50
2022-10-05T09:27:36.224Z,101081.22
2022-10-05T09:30:05.769Z,101078.75
2022-10-05T09:32:51.699Z,101071.16
2022-10-05T09:35:52.253Z,101066.97
2022-10-05T09:38:50.809Z,101062.34
2022-10-05T09:41:35.958Z,101061.50
2022-10-05T09:44:05.095Z,101063.03
2022-10-05T09:47:08.844Z,101062.22
2022-10-05T09:50:07.336Z,101054.41
2022-10-05T09:53:04.869Z,101058.25
2022-10-05T09:56:10.921Z,101055.94
2022-10-05T09:59:07.357Z,101052.75
2022-10-05T10:01:48.226Z,101052.75
2022-10-05T10:04:48.215Z,101056.19
2022-10-05T10:07:50.186Z,101041.97
2022-10-05T10:10:22.239Z,101048.56
2022-10-05T10:13:00.695Z,101046.88
2022-10-05T10:15:43.921Z,101044.31
2022-10-05T10:18:28.379Z,101035.81
2022-10-05T10:21:13.319Z,101035.38
2022-10-05T10:24:14.801Z,101035.59
2022-10-05T10:27:27.391Z,101015.00
2022-10-05T10:29:53.786Z,101019.25
2022-10-05T10:32:57.567Z,101019.88
2022-10-05T10:35:40.444Z,101021.72
2022-10-05T10:38:25.591Z,101026.78
2022-10-05T10:41:18.629Z,101013.59
2022-10-05T10:43:59.651Z,101025.88
2022-10-05T10:46:46.811Z,101028.34
2022-10-05T10:49:25.971Z,101014.31
2022-10-05T10:52:16.791Z,101010.69
2022-10-05T10:55:11.598Z,101028.25
2022-10-05T10:57:53.869Z,101012.25
2022-10-05T11:00:44.103Z,101026.19
2022-10-05T11:03:44.586Z,101010.22
2022-10-05T11:06:55.010Z,101012.53
2022-10-05T11:09:24.311Z,101008.38
2022-10-05T11:11:59.896Z,101005.56
2022-10-05T11:14:35.469Z,101007.47
2022-10-05T11:17:39.477Z,101017.13
2022-10-05T11:20:11.911Z,101008.44
2022-10-05T11:23:14.162Z,101005.06
2022-10-05T11:25:55.207Z,101003.97
2022-10-05T11:28:45.476Z,101002.72
2022-10-05T11:31:35.566Z,101013.41
2022-10-05T11:34:18.101Z,101005.72
2022-10-05T11:37:02.965Z,100992.66
2022-10-05T11:39:39.449Z,100994.09
2022-10-05T11:42:28.303Z,100991.78
2022-10-05T11:45:16.321Z,101005.28
2022-10-05T11:48:07.233Z,100995.47
2022-10-05T11:50:52.274Z,100975.31
2022-10-05T11:53:27.048Z,100969.66
2022-10-05T11:56:22.524Z,100954.28
2022-10-05T11:59:03.539Z,100952.44
2022-10-05T12:01:36.706Z,100940.94
2022-10-05T12:04:18.310Z,100945.53
2022-10-05T12:06:44.654Z,100937.16
2022-10-05T12:09:17.320Z,100933.88
2022-10-05T12:11:58.071Z,100925.13
2022-10-05T12:14:42.705Z,100932.47
2022-10-05T12:17:24.123Z,100916.34
2022-10-05T12:20:00.254Z,100918.91
2022-10-05T12:22:46.143Z,100925.91
2022-10-05T12:25:26.922Z,100916.16
2022-10-05T12:27:58.644Z,100911.41
2022-10-05T12:30:29.378Z,100918.91
2022-10-05T12:33:17.113Z,100920.38
2022-10-05T12:36:36.028Z,100920.44
2022-10-05T12:39:34.724Z,100908.63
2022-10-05T12:42:22.553Z,100903.91
2022-10-05T12:45:01.122Z,100891.44
2022-10-05T12:47:33.639Z,100886.53
2022-10-05T12:50:18.925Z,100884.38
2022-10-05T12:52:57.256Z,100893.88
2022-10-05T12:55:34.714Z,100892.00
2022-10-05T12:58:12.042Z,100896.06
2022-10-05T13:00:51.820Z,100882.34
2022-10-05T13:03:25.576Z,100878.84
2022-10-05T13:06:10.845Z,100877.66
2022-10-05T13:08:51.294Z,100873.44
2022-10-05T13:11:28.291Z,100881.66
2022-10-05T13:14:16.432Z,100883.09
2022-10-05T13:17:04.618Z,100876.56
2022-10-05T13:19:30.931Z,100866.03
2022-10-05T13:22:20.073Z,100876.50
2022-10-05T13:24:59.307Z,100859.97
2022-10-05T13:27:40.816Z,100863.81
2022-10-05T13:30:16.072Z,100867.06
2022-10-05T13:33:05.930Z,100870.59
2022-10-05T13:35:52.664Z,100869.03
2022-10-05T13:38:20.172Z,100856.59
2022-10-05T13:41:03.333Z,100856.81
2022-10-05T13:43:58.477Z,100848.06
2022-10-05T13:46:40.039Z,100844.53
2022-10-05T13:49:28.863Z,100847.25
2022-10-05T13:51:58.764Z,100846.72
2022-10-05T13:54:56.513Z,100858.78
2022-10-05T13:57:34.504Z,100848.44
2022-10-05T14:00:18.780Z,100850.13
2022-10-05T14:02:54.032Z,100838.19
2022-10-05T14:05:27.062Z,100840.56
2022-10-05T14:08:00.861Z,100834.66
2022-10-05T14:10:31.340Z,100842.25
2022-10-05T14:12:58.162Z,100833.59
2022-10-05T14:15:38.478Z,100835.66
2022-10-05T14:18:37.798Z,100841.41
2022-10-05T14:21:13.482Z,100836.72
2022-10-05T14:23:42.638Z,100831.31
2022-10-05T14:26:32.632Z,100831.66
2022-10-05T14:29:02.667Z,100840.47
2022-10-05T14:31:36.026Z,100828.91
2022-10-05T14:34:32.861Z,100832.75
2022-10-05T14:37:31.247Z,100830.59
2022-10-05T14:40:20.073Z,100827.09
2022-10-05T14:42:47.525Z,100827.44
2022-10-05T14:45:18.072Z,100813.59
2022-10-05T14:48:00.407Z,100829.16
2022-10-05T14:50:31.588Z,100824.78
2022-10-05T14:53:21.430Z,100831.91
2022-10-05T14:56:17.787Z,100835.88
2022-10-05T14:58:56.418Z,100817.94
2022-10-05T15:01:31.475Z,100823.47
2022-10-05T15:04:21.773Z,100821.28
2022-10-05T15:07:11.004Z,100825.50
2022-10-05T15:09:49.774Z,100820.44
2022-10-05T15:12:27.731Z,100814.53
2022-10-05T15:15:01.488Z,100800.47
2022-10-05T15:17:44.262Z,100801.53
2022-10-05T15:20:32.139Z,100814.41
2022-10-05T15:23:23.645Z,100818.75
2022-10-05T15:26:18.088Z,100807.44
2022-10-05T15:29:09.810Z,100801.25
2022-10-05T15:31:43.304Z,100817.38
2022-10-05T15:34:27.763Z,100816.19
2022-10-05T15:37:07.908Z,100802.59
2022-10-05T15:39:44.223Z,100809.81
2022-10-05T15:42:15.259Z,100808.38
2022-10-05T15:45:14.380Z,100799.69
2022-10-05T15:47:47.146Z,100796.91
2022-10-05T15:50:26.468Z,100790.72
2022-10-05T15:53:17.402Z,100780.22
2022-10-05T15:56:02.149Z,100787.78
2022-10-05T15:58:50.931Z,100788.25
2022-10-05T16:01:29.899Z,100789.56
2022-10-05T16:04:05.167Z,100791.81
2022-10-05T16:07:12.320Z,100779.91
2022-10-05T16:09:47.688Z,100780.59
2022-10-05T16:12:24.834Z,100783.25
2022-10-05T16:15:00.166Z,100786.00
2022-10-05T16:17:51.166Z,100787.41
2022-10-05T16:20:29.420Z,100778.34
2022-10-05T16:23:05.818Z,100778.13
2022-10-05T16:26:11.603Z,100782.91
2022-10-05T16:28:42.172Z,100778.91
2022-10-05T16:31:18.993Z,100786.19
2022-10-05T16:34:17.140Z,100785.81
2022-10-05T16:36:58.750Z,100790.38
2022-10-05T16:39:53.262Z,100788.72
2022-10-05T16:42:27.308Z,100789.25
2022-10-05T16:44:58.846Z,100806.75
2022-10-05T16:47:46.964Z,100799.22
2022-10-05T16:50:24.551Z,100796.09
2022-10-05T16:52:59.049Z,100805.53
2022-10-05T16:55:42.969Z,100814.78
2022-10-05T16:58:35.240Z,100816.13
2022-10-05T17:01:07.684Z,100819.41
2022-10-05T17:04:03.074Z,100821.63
2022-10-05T17:06:40.694Z,100831.59
2022-10-05T17:09:14.809Z,100833.63
2022-10-05T17:12:11.544Z,100829.03
2022-10-05T17:14:50.632Z,100840.75
2022-10-05T17:17:43.048Z,100844.84
2022-10-05T17:20:42.858Z,100841.91
2022-10-05T17:23:34.356Z,100852.53
2022-10-05T17:26:45.219Z,100848.56
2022-10-05T17:29:47.431Z,100859.19
2022-10-05T17:32:16.874Z,100862.56
2022-10-05T17:35:01.745Z,100869.78
2022-10-05T17:37:28.440Z,100876.78
2022-10-05T17:39:56.789Z,100880.00
2022-10-05T17:42:26.216Z,100890.78
2022-10-05T17:45:12.931Z,100903.28
2022-10-05T17:48:01.887Z,100892.28
2022-10-05T17:51:07.549Z,100896.50
2022-10-05T17:53:52.414Z,100908.34
2022-10-05T17:56:20.220Z,100909.63
2022-10-05T17:58:55.507Z,100913.41
2022-10-05T18:01:32.405Z,100925.25
2022-10-05T18:04:13.903Z,100923.94
2022-10-05T18:06:44.756Z,100934.94
2022-10-05T18:09:16.760Z,100929.44
2022-10-05T18:11:44.526Z,100938.94
2022-10-05T18:14:24.714Z,100938.50
2022-10-05T18:17:16.508Z,100960.66
2022-10-05T18:20:13.281Z,100950.50
2022-10-05T18:22:40.402Z,100959.78
2022-10-05T18:25:33.790Z,100956.78
2022-10-05T18:28:03.958Z,100964.19
2022-10-05T18:30:40.062Z,100964.16
2022-10-05T18:33:09.442Z,100971.53
2022-10-05T18:35:39.595Z,100979.09
2022-10-05T18:38:35.803Z,100975.72
2022-10-05T18:41:14.725Z,100979.06
2022-10-05T18:43:44.132Z,100978.19
2022-10-05T18:46:22.565Z,100979.03
2022-10-05T18:48:55.331Z,100988.31
2022-10-05T18:51:27.868Z,100982.53
2022-10-05T18:54:18.321Z,100989.91
2022-10-05T18:56:52.668Z,100995.81
2022-10-05T18:59:32.116Z,101006.34
2022-10-05T19:02:29.797Z,100996.66
2022-10-05T19:05:47.646Z,101008.53
2022-10-05T19:08:21.531Z,101011.69
2022-10-05T19:10:55.508Z,101018.03
2022-10-05T19:13:47.928Z,101012.13
2022-10-05T19:16:20.334Z,101023.56
2022-10-05T19:19:05.356Z,101031.34
2022-10-05T19:21:52.765Z,101032.59
2022-10-05T19:24:56.924Z,101039.53
2022-10-05T19:27:51.973Z,101040.59
2022-10-05T19:30:23.907Z,101045.81
2022-10-05T19:33:28.275Z,101042.84
2022-10-05T19:36:44.365Z,101044.91
2022-10-05T19:39:40.418Z,101050.53
2022-10-05T19:42:13.394Z,101043.28
2022-10-05T19:44:52.570Z,101052.97
2022-10-05T19:48:03.404Z,101042.78
2022-10-05T19:50:34.448Z,101051.22
2022-10-05T19:53:08.081Z,101066.16
2022-10-05T19:55:39.540Z,101061.91
2022-10-05T19:58:23.467Z,101058.50
2022-10-05T20:01:04.570Z,101069.47
2022-10-05T20:03:32.876Z,101074.50
2022-10-05T20:06:05.761Z,101078.09
2022-10-05T20:08:46.840Z,101080.19
2022-10-05T20:11:16.237Z,101082.28
2022-10-05T20:14:09.346Z,101084.63
2022-10-05T20:16:54.700Z,101088.78
2022-10-05T20:19:51.952Z,101098.94
2022-10-05T20:22:27.933Z,101100.38
2022-10-05T20:24:57.466Z,101099.69
2022-10-05T20:27:42.171Z,101113.16
2022-10-05T20:30:11.926Z,101118.44
2022-10-05T20:32:38.577Z,101118.16
2022-10-05T20:35:06.844Z,101123.47
2022-10-05T20:37:33.280Z,101123.41
2022-10-05T20:39:59.696Z,101127.16
2022-10-05T20:42:28.504Z,101133.03
2022-10-05T20:44:57.082Z,101135.13
2022-10-05T20:47:24.873Z,101136.81
2022-10-05T20:49:54.580Z,101147.16
2022-10-05T20:52:23.016Z,101152.25
2022-10-05T20:54:53.473Z,101157.91
2022-10-05T20:57:21.227Z,101158.97
2022-10-05T21:00:05.792Z,101165.47
2022-10-05T21:02:32.316Z,101159.53
2022-10-05T21:04:59.254Z,101169.66
2022-10-05T21:07:25.653Z,101170.69
2022-10-05T21:09:52.134Z,101171.72
2022-10-05T21:12:18.561Z,101165.19
2022-10-05T21:14:45.661Z,101176.72
2022-10-05T21:17:12.494Z,101182.88
2022-10-05T21:19:40.206Z,101176.38
2022-10-05T21:22:10.110Z,101184.94
2022-10-05T21:24:38.169Z,101188.09
2022-10-05T21:27:07.514Z,101184.31
2022-10-05T21:29:40.871Z,101184.94
2022-10-05T21:32:11.298Z,101179.69
2022-10-05T21:34:38.685Z,101178.16
2022-10-05T21:37:05.151Z,101184.69
2022-10-05T21:39:36.557Z,101184.47
2022-10-05T21:42:05.771Z,101197.53
2022-10-05T21:44:32.258Z,101191.69
2022-10-05T21:46:58.681Z,101201.31
2022-10-05T21:49:26.215Z,101210.41
2022-10-05T21:51:52.789Z,101210.22
2022-10-05T21:54:22.018Z,101218.78
2022-10-05T21:56:54.458Z,101219.19
2022-10-05T21:59:26.417Z,101214.06
2022-10-05T22:01:55.307Z,101211.72
2022-10-05T22:04:21.929Z,101215.66
2022-10-05T22:06:49.170Z,101217.94
2022-10-05T22:09:15.636Z,101221.16
2022-10-05T22:11:42.107Z,101222.84
2022-10-05T22:14:08.626Z,101221.53
2022-10-05T22:16:39.089Z,101225.69
2022-10-05T22:19:12.548Z,101226.06
2022-10-05T22:21:41.735Z,101226.91
2022-10-05T22:24:14.027Z,101228.53
2022-10-05T22:26:42.039Z,101234.56
2022-10-05T22:29:09.568Z,101232.94
2022-10-05T22:31:39.163Z,101233.72
2022-10-05T22:34:08.037Z,101243.34
2022-10-05T22:36:35.677Z,101248.34
2022-10-05T22:39:02.386Z,101253.66
2022-10-05T22:41:28.930Z,101251.81
2022-10-05T22:43:55.381Z,101257.47
2022-10-05T22:46:21.841Z,101260.59
2022-10-05T22:48:48.228Z,101268.13
2022-10-05T22:51:15.709Z,101268.56
2022-10-05T22:53:44.395Z,101279.50
2022-10-05T22:56:13.390Z,101280.41
2022-10-05T22:58:40.981Z,101289.84
2022-10-05T23:01:12.661Z,101283.75
2022-10-05T23:03:39.186Z,101285.19
2022-10-05T23:06:10.810Z,101285.19
2022-10-05T23:08:38.606Z,101289.50
2022-10-05T23:11:11.181Z,101283.53
2022-10-05T23:13:38.193Z,101283.84
2022-10-05T23:16:10.124Z,101283.91
2022-10-05T23:18:37.200Z,101283.75
2022-10-05T23:21:05.587Z,101280.84
2022-10-05T23:23:31.961Z,101288.41
2022-10-05T23:26:02.585Z,101283.41
2022-10-05T23:28:33.036Z,101277.41
2022-10-05T23:31:05.598Z,101287.00
2022-10-05T23:33:32.920Z,101289.91
2022-10-05T23:36:06.142Z,101290.47
2022-10-05T23:38:34.555Z,101291.13
2022-10-05T23:41:02.428Z,101305.81
2022-10-05T23:43:33.152Z,101300.59
2022-10-05T23:46:00.095Z,101307.59
2022-10-05T23:48:27.277Z,101305.78
2022-10-05T23:50:55.684Z,101308.72
2022-10-05T23:53:22.832Z,101301.91
2022-10-05T23:55:50.765Z,101296.28
2022-10-05T23:58:17.465Z,101300.88
